Fjordprinsessen — LJVE — position and weather

sailwx.info

Track history (hours):
 
Tides and Currents Weather Stations Pressure Air Temp Water Temp Dewpoint Dewpoint Depression Visibility Wind Speed Wind Dir Waves Ship Positions

Fjordprinsessen

Last reported at 2016-May-25 04:34 UTC. Time now 2016-May-28 20:43 UTC.
Position N 67°22' E 014°29'.

Length 30 m; draft 2.5 m.

Type: High speed craft. MMSI: 259604000.

Date/timePositionNaut miles runAvg speedWind from/ knotsBaromVisibWave heightAir tempDewpointWater temp
2016-May-25 04:34N 67°22' E 014°29'6 5.4
2016-May-25 03:31N 67°17' E 014°22'0 0.0
2016-May-25 02:31N 67°17' E 014°22'0 0.0
2016-May-25 01:31N 67°17' E 014°22'0 0.0
2016-May-25 00:31N 67°17' E 014°22'0 0.0
2016-May-24 23:34N 67°17' E 014°22'0 0.0
2016-May-24 22:33N 67°17' E 014°22'0 0.0
2016-May-24 21:33N 67°17' E 014°22'0 0.0
2016-May-24 20:33N 67°17' E 014°22'0 0.0
2016-May-24 19:33N 67°17' E 014°22'0 0.0
2016-May-24 18:33N 67°17' E 014°22'0 0.0
2016-May-24 17:33N 67°17' E 014°22'0 0.0
2016-May-24 16:33N 67°17' E 014°22'0 0.0
2016-May-24 15:33N 67°17' E 014°22'0 0.0
2016-May-24 14:33N 67°17' E 014°22'0 0.4
2016-May-24 13:33N 67°17' E 014°23'0 0.4
2016-May-24 12:33N 67°17' E 014°22'0 0.0
2016-May-24 11:34N 67°17' E 014°22'0 0.0
2016-May-24 10:33N 67°17' E 014°22'0 0.0
2016-May-24 09:33N 67°17' E 014°22'0 0.0
2016-May-24 08:33N 67°17' E 014°22'5 4.7
2016-May-24 07:33N 67°21' E 014°15'1312.3
2016-May-24 06:32N 67°18' E 013°43'1212.2
2016-May-24 05:32N 67°23' E 014°13'1616.4
2016-May-24 04:33N 67°07' E 014°03'1212.3
2016-May-24 03:33N 67°17' E 014°22'0 0.0
2016-May-24 02:32N 67°17' E 014°22'0 0.0
2016-May-24 01:32N 67°17' E 014°22'0 0.0
2016-May-24 00:32N 67°17' E 014°22'0 0.0
2016-May-23 23:32N 67°17' E 014°22'0 0.0
2016-May-23 22:32N 67°17' E 014°22'0 0.0
2016-May-23 21:32N 67°17' E 014°22'0 0.0
2016-May-23 20:32N 67°17' E 014°22'0 0.0
2016-May-23 19:32N 67°17' E 014°22'0 0.0
2016-May-23 18:32N 67°17' E 014°22'0 0.0
2016-May-23 17:32N 67°17' E 014°22'0 0.1
2016-May-23 16:34N 67°17' E 014°22'1615.7
2016-May-23 15:33N 67°10' E 013°46'7 6.7
2016-May-23 14:34N 67°07' E 014°02'1212.4
2016-May-23 13:33N 67°17' E 014°22'0 0.0
2016-May-23 12:33N 67°17' E 014°22'0 0.0
2016-May-23 11:33N 67°17' E 014°22'0 0.0
2016-May-23 10:33N 67°17' E 014°22'0 0.0
2016-May-23 09:33N 67°17' E 014°22'0 0.0
2016-May-23 08:33N 67°17' E 014°22'3 2.6
2016-May-23 07:34N 67°19' E 014°20'1412.6
2016-May-23 06:27N 67°18' E 013°43'1314.6
2016-May-23 05:33N 67°23' E 014°15'2 2.4
2016-May-23 04:34N 67°25' E 014°09'1 0.1
2016-May-22 19:34N 67°25' E 014°07'10 9.6
2016-May-22 18:33N 67°17' E 014°22'1918.8
2016-May-22 17:33N 67°03' E 013°50'3213.1
2016-May-22 15:06N 66°38' E 012°59'815.1
2016-May-22 14:33N 66°29' E 012°58'2216.6
2016-May-22 13:14N 66°09' E 012°42'4 0.2
2016-May-21 19:18N 66°08' E 012°51'1316.8
2016-May-21 18:33N 66°21' E 012°57'3712.2
2016-May-21 15:32N 66°56' E 013°26'1919.1
2016-May-21 14:33N 67°07' E 014°03'1212.3
2016-May-21 13:34N 67°17' E 014°22'0 0.0
2016-May-21 12:31N 67°17' E 014°22'0 0.0
2016-May-21 11:31N 67°17' E 014°22'0 0.0
2016-May-21 10:31N 67°17' E 014°22'0 0.0
2016-May-21 09:31N 67°17' E 014°22'0 0.0
2016-May-21 08:31N 67°17' E 014°22'0 0.0
2016-May-21 07:31N 67°17' E 014°22'0 0.0
2016-May-21 06:31N 67°17' E 014°22'0 0.0
2016-May-21 05:31N 67°17' E 014°22'0 0.0
2016-May-21 04:31N 67°17' E 014°22'0 0.0
2016-May-21 03:31N 67°17' E 014°22'0 0.0
2016-May-21 02:31N 67°17' E 014°22'0 0.0
2016-May-21 01:31N 67°17' E 014°22'0 0.0
2016-May-21 00:31N 67°17' E 014°22'0 0.0
2016-May-20 23:31N 67°17' E 014°22'0 0.0
2016-May-20 22:31N 67°17' E 014°22'1615.2
2016-May-20 21:28N 67°10' E 013°46'1516.5
2016-May-20 20:34N 67°17' E 014°20'1 0.9
2016-May-20 19:33N 67°17' E 014°22'9 9.4
2016-May-20 18:34N 67°25' E 014°08'9 9.4
2016-May-20 17:33N 67°17' E 014°22'0 0.4
2016-May-20 16:33N 67°17' E 014°23'1616.3
2016-May-20 15:34N 67°10' E 013°46'6 6.4
2016-May-20 14:34N 67°08' E 014°02'1211.8
2016-May-20 13:34N 67°17' E 014°22'0 0.0
2016-May-20 12:34N 67°17' E 014°22'0 0.0
2016-May-20 11:34N 67°17' E 014°22'0 0.0
2016-May-20 10:34N 67°17' E 014°22'0 0.0
2016-May-20 09:34N 67°17' E 014°22'0 0.0
2016-May-20 08:34N 67°17' E 014°22'6 5.6
2016-May-20 07:34N 67°22' E 014°14'1010.2
2016-May-20 06:33N 67°20' E 013°47'1110.9
2016-May-20 05:33N 67°23' E 014°15'2 1.8
2016-May-20 04:34N 67°24' E 014°11'6 1.5
2016-May-20 00:26N 67°24' E 013°54'0 0.0
2016-May-19 22:14N 67°24' E 013°54'0 0.0
2016-May-19 21:32N 67°24' E 013°54'0 0.0
2016-May-19 20:32N 67°24' E 013°54'0 0.0
2016-May-19 19:32N 67°24' E 013°54'7 7.6
2016-May-19 18:34N 67°23' E 014°13'7 6.8
2016-May-19 17:33N 67°17' E 014°22'0 0.0
2016-May-19 16:33N 67°17' E 014°22'8 7.5
2016-May-19 15:34N 67°23' E 014°10'2 2.0
2016-May-19 14:33N 67°23' E 014°15'7 7.1
2016-May-19 13:33N 67°17' E 014°22'1514.8
2016-May-19 12:32N 67°18' E 013°43'1313.3
2016-May-19 11:34N 67°24' E 014°14'7 7.1
2016-May-19 10:33N 67°17' E 014°24'1010.4
2016-May-19 09:34N 67°12' E 014°00'3 3.2
2016-May-19 08:34N 67°09' E 014°03'1110.5
2016-May-19 07:32N 67°17' E 014°22'0 0.0
2016-May-19 06:32N 67°17' E 014°22'0 0.0
2016-May-19 05:32N 67°17' E 014°22'1212.4
2016-May-19 04:32N 67°07' E 014°03'1212.2
2016-May-19 03:32N 67°17' E 014°22'0 0.0
2016-May-19 02:32N 67°17' E 014°22'0 0.0
2016-May-19 01:32N 67°17' E 014°22'0 0.0
2016-May-19 00:32N 67°17' E 014°22'0 0.0
2016-May-18 23:32N 67°17' E 014°22'0 0.0
2016-May-18 22:32N 67°17' E 014°22'0 0.0
2016-May-18 21:32N 67°17' E 014°22'0 0.0
2016-May-18 20:32N 67°17' E 014°22'0 0.0
2016-May-18 19:32N 67°17' E 014°22'1212.7
2016-May-18 18:34N 67°07' E 014°03'1212.3
2016-May-18 17:33N 67°17' E 014°22'0 0.0
2016-May-18 16:33N 67°17' E 014°22'1211.6
2016-May-18 15:33N 67°14' E 013°53'8 7.7
2016-May-18 14:34N 67°07' E 014°03'1212.5
2016-May-18 13:34N 67°17' E 014°23'0 0.2
2016-May-18 12:31N 67°17' E 014°22'0 0.0
2016-May-18 11:31N 67°17' E 014°22'0 0.0
2016-May-18 10:31N 67°17' E 014°22'0 0.0
2016-May-18 09:31N 67°17' E 014°22'0 0.0
2016-May-18 08:31N 67°17' E 014°22'0 0.0
2016-May-18 07:31N 67°17' E 014°22'0 0.0
2016-May-18 06:31N 67°17' E 014°22'0 0.0
2016-May-18 05:31N 67°17' E 014°22'1212.8
2016-May-18 04:34N 67°07' E 014°02'1212.3
2016-May-18 03:33N 67°17' E 014°22'0 0.0
2016-May-18 02:31N 67°17' E 014°22'0 0.0
2016-May-18 01:31N 67°17' E 014°22'0 0.0
2016-May-18 00:31N 67°17' E 014°22'0 0.0
2016-May-17 23:31N 67°17' E 014°22'0 0.0
2016-May-17 22:31N 67°17' E 014°22'0 0.0
2016-May-17 21:31N 67°17' E 014°22'0 0.0
2016-May-17 20:31N 67°17' E 014°22'0 0.0
2016-May-17 19:31N 67°17' E 014°22'0 0.0
2016-May-17 18:31N 67°17' E 014°22'0 0.0
2016-May-17 17:31N 67°17' E 014°22'0 0.0
2016-May-17 16:31N 67°17' E 014°22'3 3.6
2016-May-17 15:33N 67°20' E 014°18'6 6.2
2016-May-17 14:34N 67°25' E 014°07'10 9.6
2016-May-17 13:33N 67°17' E 014°22'0 0.0
2016-May-17 12:33N 67°17' E 014°22'0 0.0
2016-May-17 11:34N 67°17' E 014°22'0 0.0
2016-May-17 10:33N 67°17' E 014°22'0 0.0
2016-May-17 09:34N 67°17' E 014°22'0 0.0
2016-May-17 08:33N 67°17' E 014°22'0 0.0
2016-May-17 07:34N 67°17' E 014°22'1313.1
2016-May-17 06:33N 67°24' E 013°54'4 4.3
2016-May-17 05:34N 67°24' E 014°05'2 1.6
2016-May-17 04:33N 67°24' E 014°09'6 5.4
2016-May-17 03:28N 67°24' E 013°54'0 0.0
2016-May-17 02:28N 67°24' E 013°54'0 0.0
2016-May-17 01:16N 67°24' E 013°54'0 0.0
2016-May-17 00:28N 67°24' E 013°54'0 0.0
2016-May-16 23:28N 67°24' E 013°54'0 0.0
2016-May-16 22:16N 67°24' E 013°54'0 0.0
2016-May-16 21:07N 67°24' E 013°54'0 0.0
2016-May-16 20:16N 67°24' E 013°54'2 2.7
2016-May-16 19:33N 67°25' E 013°59'1211.8
2016-May-16 18:32N 67°17' E 014°22'1313.2
2016-May-16 17:33N 67°08' E 013°58'4514.8
2016-May-16 14:28N 66°29' E 012°58'11 3.3
2016-May-16 11:18N 66°19' E 012°57'3228.0
2016-May-16 10:10N 66°50' E 013°16'1626.5
2016-May-16 09:33N 67°01' E 013°46'2120.7
2016-May-16 08:31N 67°17' E 014°22'0 0.0
2016-May-16 07:31N 67°17' E 014°22'0 0.0
2016-May-16 06:31N 67°17' E 014°22'0 0.0
2016-May-16 05:31N 67°17' E 014°22'0 0.0
2016-May-16 04:31N 67°17' E 014°22'0 0.0
2016-May-16 03:31N 67°17' E 014°22'0 0.0
2016-May-16 02:31N 67°17' E 014°22'0 0.0
2016-May-16 01:31N 67°17' E 014°22'0 0.0
2016-May-16 00:31N 67°17' E 014°22'0 0.0
2016-May-15 23:31N 67°17' E 014°22'0 0.0
2016-May-15 22:31N 67°17' E 014°22'0 0.0
2016-May-15 21:31N 67°17' E 014°22'0 0.0
2016-May-15 20:31N 67°17' E 014°22'0 0.0
2016-May-15 19:31N 67°17' E 014°22'0 0.0
2016-May-15 18:31N 67°17' E 014°22'0 0.0
2016-May-15 17:31N 67°17' E 014°22'0 0.0
2016-May-15 16:31N 67°17' E 014°22'0 0.0
2016-May-15 15:31N 67°17' E 014°22'0 0.0
2016-May-15 14:31N 67°17' E 014°22'0 0.0
2016-May-15 13:31N 67°17' E 014°22'0 0.0
2016-May-15 12:31N 67°17' E 014°22'0 0.2
2016-May-15 11:34N 67°17' E 014°23'0 0.2
2016-May-15 10:32N 67°17' E 014°22'0 0.0
2016-May-15 09:32N 67°17' E 014°22'0 0.0
2016-May-15 08:32N 67°17' E 014°22'0 0.0
2016-May-15 07:32N 67°17' E 014°22'0 0.0
2016-May-15 06:32N 67°17' E 014°22'0 0.0
2016-May-15 05:32N 67°17' E 014°22'  
Track history (hours):
 
Tides and Currents Weather Stations Pressure Air Temp Water Temp Dewpoint Dewpoint Depression Visibility Wind Speed Wind Dir Waves Ship Positions

Fjordprinsessen

Last reported at 2016-May-25 04:34 UTC. Time now 2016-May-28 20:43 UTC.
Position N 67°22' E 014°29'.

Length 30 m; draft 2.5 m.

Type: High speed craft. MMSI: 259604000.

Date/timePositionNaut miles runAvg speedWind from/ knotsBaromVisibWave heightAir tempDewpointWater temp
2016-May-25 04:34N 67°22' E 014°29'6 5.4
2016-May-25 03:31N 67°17' E 014°22'0 0.0
2016-May-25 02:31N 67°17' E 014°22'0 0.0
2016-May-25 01:31N 67°17' E 014°22'0 0.0
2016-May-25 00:31N 67°17' E 014°22'0 0.0
2016-May-24 23:34N 67°17' E 014°22'0 0.0
2016-May-24 22:33N 67°17' E 014°22'0 0.0
2016-May-24 21:33N 67°17' E 014°22'0 0.0
2016-May-24 20:33N 67°17' E 014°22'0 0.0
2016-May-24 19:33N 67°17' E 014°22'0 0.0
2016-May-24 18:33N 67°17' E 014°22'0 0.0
2016-May-24 17:33N 67°17' E 014°22'0 0.0
2016-May-24 16:33N 67°17' E 014°22'0 0.0
2016-May-24 15:33N 67°17' E 014°22'0 0.0
2016-May-24 14:33N 67°17' E 014°22'0 0.4
2016-May-24 13:33N 67°17' E 014°23'0 0.4
2016-May-24 12:33N 67°17' E 014°22'0 0.0
2016-May-24 11:34N 67°17' E 014°22'0 0.0
2016-May-24 10:33N 67°17' E 014°22'0 0.0
2016-May-24 09:33N 67°17' E 014°22'0 0.0
2016-May-24 08:33N 67°17' E 014°22'5 4.7
2016-May-24 07:33N 67°21' E 014°15'1312.3
2016-May-24 06:32N 67°18' E 013°43'1212.2
2016-May-24 05:32N 67°23' E 014°13'1616.4
2016-May-24 04:33N 67°07' E 014°03'1212.3
2016-May-24 03:33N 67°17' E 014°22'0 0.0
2016-May-24 02:32N 67°17' E 014°22'0 0.0
2016-May-24 01:32N 67°17' E 014°22'0 0.0
2016-May-24 00:32N 67°17' E 014°22'0 0.0
2016-May-23 23:32N 67°17' E 014°22'0 0.0
2016-May-23 22:32N 67°17' E 014°22'0 0.0
2016-May-23 21:32N 67°17' E 014°22'0 0.0
2016-May-23 20:32N 67°17' E 014°22'0 0.0
2016-May-23 19:32N 67°17' E 014°22'0 0.0
2016-May-23 18:32N 67°17' E 014°22'0 0.0
2016-May-23 17:32N 67°17' E 014°22'0 0.1
2016-May-23 16:34N 67°17' E 014°22'1615.7
2016-May-23 15:33N 67°10' E 013°46'7 6.7
2016-May-23 14:34N 67°07' E 014°02'1212.4
2016-May-23 13:33N 67°17' E 014°22'0 0.0
2016-May-23 12:33N 67°17' E 014°22'0 0.0
2016-May-23 11:33N 67°17' E 014°22'0 0.0
2016-May-23 10:33N 67°17' E 014°22'0 0.0
2016-May-23 09:33N 67°17' E 014°22'0 0.0
2016-May-23 08:33N 67°17' E 014°22'3 2.6
2016-May-23 07:34N 67°19' E 014°20'1412.6
2016-May-23 06:27N 67°18' E 013°43'1314.6
2016-May-23 05:33N 67°23' E 014°15'2 2.4
2016-May-23 04:34N 67°25' E 014°09'1 0.1
2016-May-22 19:34N 67°25' E 014°07'10 9.6
2016-May-22 18:33N 67°17' E 014°22'1918.8
2016-May-22 17:33N 67°03' E 013°50'3213.1
2016-May-22 15:06N 66°38' E 012°59'815.1
2016-May-22 14:33N 66°29' E 012°58'2216.6
2016-May-22 13:14N 66°09' E 012°42'4 0.2
2016-May-21 19:18N 66°08' E 012°51'1316.8
2016-May-21 18:33N 66°21' E 012°57'3712.2
2016-May-21 15:32N 66°56' E 013°26'1919.1
2016-May-21 14:33N 67°07' E 014°03'1212.3
2016-May-21 13:34N 67°17' E 014°22'0 0.0
2016-May-21 12:31N 67°17' E 014°22'0 0.0
2016-May-21 11:31N 67°17' E 014°22'0 0.0
2016-May-21 10:31N 67°17' E 014°22'0 0.0
2016-May-21 09:31N 67°17' E 014°22'0 0.0
2016-May-21 08:31N 67°17' E 014°22'0 0.0
2016-May-21 07:31N 67°17' E 014°22'0 0.0
2016-May-21 06:31N 67°17' E 014°22'0 0.0
2016-May-21 05:31N 67°17' E 014°22'0 0.0
2016-May-21 04:31N 67°17' E 014°22'0 0.0
2016-May-21 03:31N 67°17' E 014°22'0 0.0
2016-May-21 02:31N 67°17' E 014°22'0 0.0
2016-May-21 01:31N 67°17' E 014°22'0 0.0
2016-May-21 00:31N 67°17' E 014°22'0 0.0
2016-May-20 23:31N 67°17' E 014°22'0 0.0
2016-May-20 22:31N 67°17' E 014°22'1615.2
2016-May-20 21:28N 67°10' E 013°46'1516.5
2016-May-20 20:34N 67°17' E 014°20'1 0.9
2016-May-20 19:33N 67°17' E 014°22'9 9.4
2016-May-20 18:34N 67°25' E 014°08'9 9.4
2016-May-20 17:33N 67°17' E 014°22'0 0.4
2016-May-20 16:33N 67°17' E 014°23'1616.3
2016-May-20 15:34N 67°10' E 013°46'6 6.4
2016-May-20 14:34N 67°08' E 014°02'1211.8
2016-May-20 13:34N 67°17' E 014°22'0 0.0
2016-May-20 12:34N 67°17' E 014°22'0 0.0
2016-May-20 11:34N 67°17' E 014°22'0 0.0
2016-May-20 10:34N 67°17' E 014°22'0 0.0
2016-May-20 09:34N 67°17' E 014°22'0 0.0
2016-May-20 08:34N 67°17' E 014°22'6 5.6
2016-May-20 07:34N 67°22' E 014°14'1010.2
2016-May-20 06:33N 67°20' E 013°47'1110.9
2016-May-20 05:33N 67°23' E 014°15'2 1.8
2016-May-20 04:34N 67°24' E 014°11'6 1.5
2016-May-20 00:26N 67°24' E 013°54'0 0.0
2016-May-19 22:14N 67°24' E 013°54'0 0.0
2016-May-19 21:32N 67°24' E 013°54'0 0.0
2016-May-19 20:32N 67°24' E 013°54'0 0.0
2016-May-19 19:32N 67°24' E 013°54'7 7.6
2016-May-19 18:34N 67°23' E 014°13'7 6.8
2016-May-19 17:33N 67°17' E 014°22'0 0.0
2016-May-19 16:33N 67°17' E 014°22'8 7.5
2016-May-19 15:34N 67°23' E 014°10'2 2.0
2016-May-19 14:33N 67°23' E 014°15'7 7.1
2016-May-19 13:33N 67°17' E 014°22'1514.8
2016-May-19 12:32N 67°18' E 013°43'1313.3
2016-May-19 11:34N 67°24' E 014°14'7 7.1
2016-May-19 10:33N 67°17' E 014°24'1010.4
2016-May-19 09:34N 67°12' E 014°00'3 3.2
2016-May-19 08:34N 67°09' E 014°03'1110.5
2016-May-19 07:32N 67°17' E 014°22'0 0.0
2016-May-19 06:32N 67°17' E 014°22'0 0.0
2016-May-19 05:32N 67°17' E 014°22'1212.4
2016-May-19 04:32N 67°07' E 014°03'1212.2
2016-May-19 03:32N 67°17' E 014°22'0 0.0
2016-May-19 02:32N 67°17' E 014°22'0 0.0
2016-May-19 01:32N 67°17' E 014°22'0 0.0
2016-May-19 00:32N 67°17' E 014°22'0 0.0
2016-May-18 23:32N 67°17' E 014°22'0 0.0
2016-May-18 22:32N 67°17' E 014°22'0 0.0
2016-May-18 21:32N 67°17' E 014°22'0 0.0
2016-May-18 20:32N 67°17' E 014°22'0 0.0
2016-May-18 19:32N 67°17' E 014°22'1212.7
2016-May-18 18:34N 67°07' E 014°03'1212.3
2016-May-18 17:33N 67°17' E 014°22'0 0.0
2016-May-18 16:33N 67°17' E 014°22'1211.6
2016-May-18 15:33N 67°14' E 013°53'8 7.7
2016-May-18 14:34N 67°07' E 014°03'1212.5
2016-May-18 13:34N 67°17' E 014°23'0 0.2
2016-May-18 12:31N 67°17' E 014°22'0 0.0
2016-May-18 11:31N 67°17' E 014°22'0 0.0
2016-May-18 10:31N 67°17' E 014°22'0 0.0
2016-May-18 09:31N 67°17' E 014°22'0 0.0
2016-May-18 08:31N 67°17' E 014°22'0 0.0
2016-May-18 07:31N 67°17' E 014°22'0 0.0
2016-May-18 06:31N 67°17' E 014°22'0 0.0
2016-May-18 05:31N 67°17' E 014°22'1212.8
2016-May-18 04:34N 67°07' E 014°02'1212.3
2016-May-18 03:33N 67°17' E 014°22'0 0.0
2016-May-18 02:31N 67°17' E 014°22'0 0.0
2016-May-18 01:31N 67°17' E 014°22'0 0.0
2016-May-18 00:31N 67°17' E 014°22'0 0.0
2016-May-17 23:31N 67°17' E 014°22'0 0.0
2016-May-17 22:31N 67°17' E 014°22'0 0.0
2016-May-17 21:31N 67°17' E 014°22'0 0.0
2016-May-17 20:31N 67°17' E 014°22'0 0.0
2016-May-17 19:31N 67°17' E 014°22'0 0.0
2016-May-17 18:31N 67°17' E 014°22'0 0.0
2016-May-17 17:31N 67°17' E 014°22'0 0.0
2016-May-17 16:31N 67°17' E 014°22'3 3.6
2016-May-17 15:33N 67°20' E 014°18'6 6.2
2016-May-17 14:34N 67°25' E 014°07'10 9.6
2016-May-17 13:33N 67°17' E 014°22'0 0.0
2016-May-17 12:33N 67°17' E 014°22'0 0.0
2016-May-17 11:34N 67°17' E 014°22'0 0.0
2016-May-17 10:33N 67°17' E 014°22'0 0.0
2016-May-17 09:34N 67°17' E 014°22'0 0.0
2016-May-17 08:33N 67°17' E 014°22'0 0.0
2016-May-17 07:34N 67°17' E 014°22'1313.1
2016-May-17 06:33N 67°24' E 013°54'4 4.3
2016-May-17 05:34N 67°24' E 014°05'2 1.6
2016-May-17 04:33N 67°24' E 014°09'6 5.4
2016-May-17 03:28N 67°24' E 013°54'0 0.0
2016-May-17 02:28N 67°24' E 013°54'0 0.0
2016-May-17 01:16N 67°24' E 013°54'0 0.0
2016-May-17 00:28N 67°24' E 013°54'0 0.0
2016-May-16 23:28N 67°24' E 013°54'0 0.0
2016-May-16 22:16N 67°24' E 013°54'0 0.0
2016-May-16 21:07N 67°24' E 013°54'0 0.0
2016-May-16 20:16N 67°24' E 013°54'2 2.7
2016-May-16 19:33N 67°25' E 013°59'1211.8
2016-May-16 18:32N 67°17' E 014°22'1313.2
2016-May-16 17:33N 67°08' E 013°58'4514.8
2016-May-16 14:28N 66°29' E 012°58'11 3.3
2016-May-16 11:18N 66°19' E 012°57'3228.0
2016-May-16 10:10N 66°50' E 013°16'1626.5
2016-May-16 09:33N 67°01' E 013°46'2120.7
2016-May-16 08:31N 67°17' E 014°22'0 0.0
2016-May-16 07:31N 67°17' E 014°22'0 0.0
2016-May-16 06:31N 67°17' E 014°22'0 0.0
2016-May-16 05:31N 67°17' E 014°22'0 0.0
2016-May-16 04:31N 67°17' E 014°22'0 0.0
2016-May-16 03:31N 67°17' E 014°22'0 0.0
2016-May-16 02:31N 67°17' E 014°22'0 0.0
2016-May-16 01:31N 67°17' E 014°22'0 0.0
2016-May-16 00:31N 67°17' E 014°22'0 0.0
2016-May-15 23:31N 67°17' E 014°22'0 0.0
2016-May-15 22:31N 67°17' E 014°22'0 0.0
2016-May-15 21:31N 67°17' E 014°22'0 0.0
2016-May-15 20:31N 67°17' E 014°22'0 0.0
2016-May-15 19:31N 67°17' E 014°22'0 0.0
2016-May-15 18:31N 67°17' E 014°22'0 0.0
2016-May-15 17:31N 67°17' E 014°22'0 0.0
2016-May-15 16:31N 67°17' E 014°22'0 0.0
2016-May-15 15:31N 67°17' E 014°22'0 0.0
2016-May-15 14:31N 67°17' E 014°22'0 0.0
2016-May-15 13:31N 67°17' E 014°22'0 0.0
2016-May-15 12:31N 67°17' E 014°22'0 0.2
2016-May-15 11:34N 67°17' E 014°23'0 0.2
2016-May-15 10:32N 67°17' E 014°22'0 0.0
2016-May-15 09:32N 67°17' E 014°22'0 0.0
2016-May-15 08:32N 67°17' E 014°22'0 0.0
2016-May-15 07:32N 67°17' E 014°22'0 0.0
2016-May-15 06:32N 67°17' E 014°22'0 0.0
2016-May-15 05:32N 67°17' E 014°22'  

Dump ship's entire track history